Time;durP1;ratioP1;P1;durP2;ratioP2;P2;SDS_P1;SDS_P2;PMS_P1;PMS_P2;Temp;Humidity;BMP_temperature;BMP_pressure;BME280_temperature;BME280_humidity;BME280_pressure;Samples;Min_cycle;Max_cycle;Signal;HPM_P1;HPM_P2
2022/06/01 00:00:48;;;;;;;3.45;2.42;;;12.70;63.30;;;;;;5031103;28;20033;-82
2022/06/01 00:03:13;;;;;;;2.60;2.05;;;12.70;63.50;;;;;;5018921;28;20032;-82
2022/06/01 00:05:40;;;;;;;2.73;1.93;;;12.60;63.30;;;;;;5033568;28;20052;-82
2022/06/01 00:08:06;;;;;;;3.00;2.22;;;12.60;63.40;;;;;;5031197;28;20041;-82
2022/06/01 00:10:32;;;;;;;2.70;1.90;;;12.60;63.50;;;;;;5044066;28;20032;-82
2022/06/01 00:12:58;;;;;;;2.80;2.10;;;12.60;63.40;;;;;;5029103;28;20029;-82
2022/06/01 00:15:25;;;;;;;2.87;1.97;;;12.60;63.30;;;;;;5033897;28;20134;-82
2022/06/01 00:17:51;;;;;;;2.97;2.17;;;12.60;63.60;;;;;;5020271;28;20041;-82
2022/06/01 00:20:17;;;;;;;3.60;2.05;;;12.50;63.70;;;;;;5032322;28;20048;-82
2022/06/01 00:22:44;;;;;;;3.40;2.00;;;12.50;63.70;;;;;;5035910;28;20573;-82
2022/06/01 00:25:11;;;;;;;2.83;2.13;;;12.50;63.90;;;;;;5033697;28;20155;-82
2022/06/01 00:27:37;;;;;;;3.30;2.10;;;12.50;64.00;;;;;;5038270;28;20400;-82
2022/06/01 00:30:10;;;;;;;2.83;1.92;;;12.40;63.90;;;;;;5042166;28;20032;-82
2022/06/01 00:32:36;;;;;;;2.80;1.80;;;12.40;64.60;;;;;;5029577;28;20048;-82
2022/06/01 00:35:03;;;;;;;3.20;2.10;;;12.40;64.00;;;;;;5023950;28;20024;-82
2022/06/01 00:37:29;;;;;;;2.88;2.08;;;12.30;64.20;;;;;;5027522;28;20651;-82
2022/06/01 00:39:55;;;;;;;3.30;2.13;;;12.30;64.10;;;;;;5026092;28;20386;-82
2022/06/01 00:42:25;;;;;;;2.53;1.60;;;12.30;65.00;;;;;;5036016;28;20493;-82
2022/06/01 00:44:52;;;;;;;3.03;1.80;;;12.30;64.40;;;;;;5029834;28;20070;-82
2022/06/01 00:47:20;;;;;;;2.38;1.77;;;12.20;64.40;;;;;;5025580;28;20055;-82
2022/06/01 00:49:51;;;;;;;2.42;1.58;;;12.20;64.50;;;;;;5021771;28;20472;-82
2022/06/01 00:52:35;;;;;;;3.78;2.05;;;12.20;64.60;;;;;;5034384;28;20025;-82
2022/06/01 00:55:07;;;;;;;2.27;1.67;;;12.10;64.50;;;;;;5019146;28;20030;-82
2022/06/01 00:57:33;;;;;;;3.63;1.73;;;12.20;64.70;;;;;;5038173;28;20402;-82
2022/06/01 01:00:04;;;;;;;2.50;1.73;;;12.20;64.40;;;;;;5028551;28;20060;-82
2022/06/01 01:02:30;;;;;;;2.40;1.50;;;12.10;64.70;;;;;;5023638;28;20382;-82
2022/06/01 01:04:57;;;;;;;2.70;1.90;;;12.10;64.60;;;;;;5031754;28;20037;-82
2022/06/01 01:07:26;;;;;;;3.28;1.95;;;12.10;64.80;;;;;;5024147;28;20231;-82
2022/06/01 01:09:52;;;;;;;2.78;1.60;;;12.10;65.20;;;;;;5041744;28;20025;-82
2022/06/01 01:12:18;;;;;;;2.45;1.73;;;12.10;64.90;;;;;;5015090;28;20040;-82
2022/06/01 01:14:45;;;;;;;1.98;1.52;;;12.00;64.80;;;;;;5038257;28;20029;-82
2022/06/01 01:17:11;;;;;;;3.00;1.60;;;12.00;64.90;;;;;;5027839;28;20045;-82
2022/06/01 01:19:40;;;;;;;2.45;1.52;;;12.00;64.80;;;;;;5034343;28;20032;-82
2022/06/01 01:22:12;;;;;;;2.65;1.60;;;12.00;64.80;;;;;;5016993;28;20393;-82
2022/06/01 01:25:10;;;;;;;2.50;1.55;;;12.00;65.20;;;;;;5035037;28;20040;-82
2022/06/01 01:27:35;;;;;;;2.63;1.38;;;12.00;66.80;;;;;;5048276;28;20063;-82
2022/06/01 01:30:24;;;;;;;2.23;1.50;;;12.00;64.70;;;;;;5035376;28;20029;-82
2022/06/01 01:32:50;;;;;;;2.90;1.35;;;12.00;66.30;;;;;;5031249;28;20037;-82
2022/06/01 01:35:15;;;;;;;2.05;1.50;;;11.90;64.70;;;;;;5039491;28;20288;-83
2022/06/01 01:37:42;;;;;;;2.37;1.57;;;11.90;64.90;;;;;;5014275;28;20029;-82
2022/06/01 01:40:09;;;;;;;1.70;1.40;;;11.90;65.00;;;;;;5025705;28;20401;-82
2022/06/01 01:42:34;;;;;;;1.92;1.33;;;11.90;64.90;;;;;;5023360;28;20128;-82
2022/06/01 01:45:25;;;;;;;2.07;1.33;;;11.90;65.00;;;;;;5035907;28;20103;-82
2022/06/01 01:47:51;;;;;;;3.13;1.60;;;11.90;65.70;;;;;;5055125;28;20440;-82
2022/06/01 01:50:18;;;;;;;2.20;1.48;;;11.80;64.90;;;;;;5030254;28;20118;-82
2022/06/01 01:52:45;;;;;;;1.77;1.20;;;11.80;65.00;;;;;;5020074;28;20033;-82
2022/06/01 01:55:28;;;;;;;2.00;1.20;;;11.80;65.00;;;;;;5043181;28;20759;-82
2022/06/01 01:58:01;;;;;;;1.67;1.30;;;11.80;66.50;;;;;;5029812;28;20148;-82
2022/06/01 02:00:34;;;;;;;1.90;1.30;;;11.80;65.90;;;;;;5042152;28;20040;-82
2022/06/01 02:03:27;;;;;;;1.55;1.20;;;11.80;65.40;;;;;;5029274;28;20059;-82
2022/06/01 02:06:24;;;;;;;1.27;1.00;;;11.80;67.00;;;;;;5033012;28;20060;-82
2022/06/01 02:08:58;;;;;;;1.90;1.30;;;11.80;66.20;;;;;;5020590;28;20047;-82
2022/06/01 02:14:31;;;;;;;1.95;1.00;;;11.80;66.50;;;;;;5021052;28;20205;-82
2022/06/01 02:17:04;;;;;;;1.38;1.00;;;11.80;66.20;;;;;;5042329;28;20123;-82
2022/06/01 02:19:36;;;;;;;1.00;0.90;;;11.80;65.90;;;;;;5018295;28;20056;-82
2022/06/01 02:22:01;;;;;;;1.33;0.90;;;11.80;65.90;;;;;;5040489;28;20038;-82
2022/06/01 02:24:27;;;;;;;1.77;1.02;;;11.90;65.60;;;;;;5016236;28;20901;-82
2022/06/01 02:26:55;;;;;;;1.50;0.98;;;11.90;65.70;;;;;;5041601;28;20115;-82
2022/06/01 02:29:31;;;;;;;1.63;1.30;;;11.90;65.80;;;;;;5034068;28;20697;-82
2022/06/01 02:31:58;;;;;;;1.75;1.10;;;11.90;66.30;;;;;;5037451;28;20281;-82
2022/06/01 02:34:25;;;;;;;1.75;1.10;;;11.80;65.60;;;;;;5043895;28;20028;-82
2022/06/01 02:36:51;;;;;;;1.38;1.13;;;11.80;65.50;;;;;;5024763;28;20182;-82
2022/06/01 02:39:19;;;;;;;1.45;1.20;;;11.80;66.30;;;;;;5013718;28;20051;-82
2022/06/01 02:44:29;;;;;;;1.42;0.90;;;11.80;65.50;;;;;;5021984;28;20045;-82
2022/06/01 02:46:54;;;;;;;1.48;1.10;;;11.70;65.50;;;;;;5037493;28;20396;-82
2022/06/01 02:49:20;;;;;;;1.40;1.00;;;11.60;65.60;;;;;;5029251;28;20687;-82
2022/06/01 02:51:46;;;;;;;1.73;1.00;;;11.60;65.60;;;;;;5037004;28;20042;-82
2022/06/01 02:54:13;;;;;;;1.77;1.40;;;11.60;65.80;;;;;;5043680;28;20619;-82
2022/06/01 02:56:39;;;;;;;1.50;1.00;;;11.60;65.90;;;;;;5024333;28;20474;-81
2022/06/01 02:59:05;;;;;;;2.08;1.15;;;11.50;66.00;;;;;;5031246;28;20025;-82
2022/06/01 03:01:32;;;;;;;1.23;1.10;;;11.50;66.10;;;;;;5028439;28;20515;-82
2022/06/01 03:03:58;;;;;;;1.70;1.17;;;11.40;66.20;;;;;;5037519;28;20102;-82
2022/06/01 03:06:24;;;;;;;1.27;1.10;;;11.40;66.30;;;;;;5029135;28;20049;-81
2022/06/01 03:08:49;;;;;;;2.70;1.30;;;11.30;66.10;;;;;;5037096;28;20037;-82
2022/06/01 03:11:15;;;;;;;1.27;1.00;;;11.20;66.30;;;;;;5027438;28;20235;-82
2022/06/01 03:13:41;;;;;;;1.60;1.13;;;11.20;66.40;;;;;;5026465;28;20087;-81
2022/06/01 03:16:07;;;;;;;1.83;1.15;;;11.10;66.50;;;;;;5028799;28;20041;-82
2022/06/01 03:18:33;;;;;;;1.40;1.00;;;11.10;66.60;;;;;;5042292;28;20057;-82
2022/06/01 03:20:59;;;;;;;1.20;1.10;;;11.10;66.60;;;;;;5033908;28;20037;-82
2022/06/01 03:23:26;;;;;;;1.50;1.00;;;11.00;66.70;;;;;;5034146;28;20110;-82
2022/06/01 03:25:52;;;;;;;1.30;1.10;;;11.00;66.70;;;;;;5027288;28;20474;-81
2022/06/01 03:28:17;;;;;;;1.50;1.10;;;10.90;66.80;;;;;;5025411;28;20674;-81
2022/06/01 03:30:44;;;;;;;1.48;1.20;;;10.90;67.00;;;;;;5039479;28;20037;-81
2022/06/01 03:33:13;;;;;;;1.58;1.20;;;10.90;67.10;;;;;;5007670;28;20741;-81
2022/06/01 03:35:40;;;;;;;1.83;1.20;;;10.80;67.80;;;;;;5046576;28;20473;-81
2022/06/01 03:38:06;;;;;;;1.52;1.20;;;10.80;67.10;;;;;;5028072;28;20410;-81
2022/06/01 03:40:33;;;;;;;1.25;1.10;;;10.80;67.30;;;;;;5034890;28;20053;-81
2022/06/01 03:42:59;;;;;;;1.23;1.00;;;10.80;67.20;;;;;;5020599;28;20548;-81
2022/06/01 03:48:10;;;;;;;1.00;0.90;;;10.70;67.30;;;;;;5019945;28;20041;-81
2022/06/01 03:50:36;;;;;;;1.73;1.00;;;10.70;67.20;;;;;;5035924;28;20043;-81
2022/06/01 03:53:02;;;;;;;1.80;1.08;;;10.70;67.20;;;;;;5014123;28;20052;-81
2022/06/01 03:55:29;;;;;;;2.63;1.20;;;10.60;67.30;;;;;;5032537;28;20029;-81
2022/06/01 03:57:55;;;;;;;1.75;1.20;;;10.60;67.40;;;;;;5019038;28;20032;-81
2022/06/01 04:00:24;;;;;;;1.50;1.20;;;10.60;67.60;;;;;;5022115;28;20038;-80
2022/06/01 04:02:50;;;;;;;1.30;0.90;;;10.60;67.70;;;;;;5032471;28;20255;-81
2022/06/01 04:05:17;;;;;;;1.15;1.00;;;10.60;67.70;;;;;;5031312;28;20238;-81
2022/06/01 04:07:42;;;;;;;1.17;1.00;;;10.60;67.70;;;;;;5024686;28;20106;-81
2022/06/01 04:10:09;;;;;;;1.30;1.00;;;10.60;67.70;;;;;;5020341;28;20160;-81
2022/06/01 04:12:36;;;;;;;1.48;1.00;;;10.60;67.80;;;;;;5036193;28;20036;-81
2022/06/01 04:15:02;;;;;;;1.00;0.90;;;10.50;67.80;;;;;;5013453;28;20082;-81
2022/06/01 04:17:28;;;;;;;1.40;1.07;;;10.60;68.00;;;;;;5027189;28;20602;-81
2022/06/01 04:19:54;;;;;;;1.23;1.10;;;10.60;68.10;;;;;;5038064;28;20051;-81
2022/06/01 04:22:20;;;;;;;1.20;1.00;;;10.50;68.10;;;;;;5031177;28;20255;-81
2022/06/01 04:24:45;;;;;;;3.70;1.60;;;10.60;68.40;;;;;;5027135;28;20040;-81
2022/06/01 04:27:11;;;;;;;1.90;1.07;;;10.60;68.30;;;;;;5037913;28;20051;-81
2022/06/01 04:29:39;;;;;;;1.63;1.00;;;10.60;68.40;;;;;;5022405;28;20040;-81
2022/06/01 04:32:10;;;;;;;1.00;0.90;;;10.60;68.50;;;;;;5019586;28;20397;-81
2022/06/01 04:34:36;;;;;;;1.67;1.30;;;10.60;68.80;;;;;;5037586;28;20396;-81
2022/06/01 04:37:02;;;;;;;1.55;1.00;;;10.70;68.60;;;;;;5036146;28;20029;-81
2022/06/01 04:39:28;;;;;;;3.45;1.02;;;10.70;68.80;;;;;;5022340;28;20037;-80
2022/06/01 04:41:54;;;;;;;1.43;0.97;;;10.80;69.00;;;;;;5029784;28;20468;-81
2022/06/01 04:44:20;;;;;;;1.00;0.90;;;10.80;69.00;;;;;;5013118;28;20471;-81
2022/06/01 04:46:46;;;;;;;1.43;1.07;;;10.80;69.10;;;;;;5031916;28;20091;-81
2022/06/01 04:49:12;;;;;;;1.10;1.00;;;10.80;69.20;;;;;;5018472;28;20101;-81
2022/06/01 04:51:38;;;;;;;1.48;1.00;;;10.90;69.30;;;;;;5035575;28;20120;-81
2022/06/01 04:54:05;;;;;;;1.80;1.08;;;10.90;69.20;;;;;;5024772;28;20045;-81
2022/06/01 04:56:30;;;;;;;1.20;1.03;;;11.00;69.40;;;;;;5037542;28;20048;-81
2022/06/01 04:58:56;;;;;;;1.88;1.10;;;11.00;69.30;;;;;;5026549;28;20033;-81
2022/06/01 05:01:22;;;;;;;2.03;1.10;;;11.00;69.30;;;;;;4990794;28;20045;-81
2022/06/01 05:03:48;;;;;;;2.20;0.98;;;11.10;70.10;;;;;;5023760;28;20037;-81
2022/06/01 05:06:14;;;;;;;1.08;0.90;;;11.10;70.20;;;;;;5019316;28;20120;-81
2022/06/01 05:08:40;;;;;;;1.87;1.10;;;11.20;69.40;;;;;;5023218;28;20161;-81
2022/06/01 05:11:05;;;;;;;1.80;1.02;;;11.20;70.40;;;;;;5028179;28;20062;-80
2022/06/01 05:13:31;;;;;;;2.10;1.10;;;11.30;69.40;;;;;;5026702;28;20212;-81
2022/06/01 05:15:59;;;;;;;1.20;1.10;;;11.30;69.60;;;;;;5019050;28;20280;-81
2022/06/01 05:18:26;;;;;;;2.20;1.17;;;11.40;69.70;;;;;;5024040;28;20075;-82
2022/06/01 05:20:56;;;;;;;1.50;1.10;;;11.40;69.90;;;;;;5019023;28;20040;-81
2022/06/01 05:23:23;;;;;;;2.97;1.30;;;11.50;70.00;;;;;;5029571;28;20036;-81
2022/06/01 05:25:51;;;;;;;2.00;1.20;;;11.60;70.30;;;;;;5026884;28;20036;-81
2022/06/01 05:28:21;;;;;;;2.05;1.15;;;11.70;70.50;;;;;;5036081;28;20029;-81
2022/06/01 05:30:47;;;;;;;2.40;1.20;;;11.80;70.80;;;;;;5018995;28;20476;-81
2022/06/01 05:33:12;;;;;;;2.17;1.13;;;11.90;70.90;;;;;;5041187;28;20068;-80
2022/06/01 05:35:38;;;;;;;2.70;1.25;;;11.90;71.10;;;;;;5015273;28;20405;-81
2022/06/01 05:38:04;;;;;;;3.20;1.30;;;12.10;71.30;;;;;;5035641;28;20556;-81
2022/06/01 05:40:30;;;;;;;2.40;1.40;;;12.20;71.30;;;;;;4995391;28;20178;-81
2022/06/01 05:42:57;;;;;;;1.88;1.30;;;12.30;71.20;;;;;;5036067;28;20021;-81
2022/06/01 05:45:23;;;;;;;2.47;1.45;;;12.50;71.50;;;;;;5032784;28;20404;-81
2022/06/01 05:47:49;;;;;;;3.07;1.33;;;12.60;71.60;;;;;;5016822;28;20037;-81
2022/06/01 05:50:15;;;;;;;2.70;1.40;;;12.70;71.50;;;;;;5017513;28;20371;-81
2022/06/01 05:52:40;;;;;;;2.88;1.60;;;12.80;71.50;;;;;;5010981;28;20379;-81
2022/06/01 05:55:08;;;;;;;3.40;1.57;;;12.90;71.50;;;;;;5038620;28;20393;-81
2022/06/01 05:57:35;;;;;;;3.47;1.48;;;13.00;71.60;;;;;;5035255;28;20210;-81
2022/06/01 06:00:03;;;;;;;3.35;1.70;;;13.10;71.30;;;;;;5035422;28;20288;-80
2022/06/01 06:02:28;;;;;;;4.07;1.40;;;13.20;71.30;;;;;;5013992;28;20098;-81
2022/06/01 06:04:54;;;;;;;2.70;1.50;;;13.30;71.40;;;;;;5039027;28;20052;-81
2022/06/01 06:07:19;;;;;;;2.92;1.35;;;13.40;71.40;;;;;;5006150;28;20529;-81
2022/06/01 06:09:45;;;;;;;2.67;1.27;;;13.50;71.50;;;;;;5026865;28;20038;-81
2022/06/01 06:12:11;;;;;;;2.70;1.30;;;13.60;71.40;;;;;;5023050;28;20029;-81
2022/06/01 06:14:38;;;;;;;2.10;1.30;;;13.70;71.40;;;;;;5014838;28;20607;-82
2022/06/01 06:17:04;;;;;;;3.15;1.58;;;13.80;72.40;;;;;;5028704;28;20521;-81
2022/06/01 06:19:29;;;;;;;3.22;1.75;;;13.90;71.60;;;;;;4994212;28;20025;-81
2022/06/01 06:21:55;;;;;;;2.07;1.20;;;14.00;71.30;;;;;;5014461;28;20030;-81
2022/06/01 06:24:21;;;;;;;4.05;1.60;;;14.00;71.10;;;;;;5038043;28;20408;-81
2022/06/01 06:26:47;;;;;;;2.53;1.57;;;14.10;71.10;;;;;;5027220;28;20041;-81
2022/06/01 06:29:16;;;;;;;2.63;1.50;;;14.10;71.00;;;;;;5023607;28;20064;-81
2022/06/01 06:31:43;;;;;;;3.20;1.55;;;14.10;71.00;;;;;;5026057;28;21578;-80
2022/06/01 06:34:09;;;;;;;2.50;1.60;;;14.20;70.90;;;;;;5015204;28;20492;-81
2022/06/01 06:36:34;;;;;;;3.00;1.60;;;14.20;70.90;;;;;;5024158;28;20184;-81
2022/06/01 06:39:00;;;;;;;3.08;1.60;;;14.30;71.20;;;;;;5024823;28;20118;-81
2022/06/01 06:41:26;;;;;;;4.30;1.50;;;14.30;71.10;;;;;;5037969;28;20033;-81
2022/06/01 06:43:52;;;;;;;3.88;1.70;;;14.40;71.20;;;;;;5025073;28;20068;-81
2022/06/01 06:46:21;;;;;;;3.45;1.58;;;14.40;71.20;;;;;;5040164;28;20029;-80
2022/06/01 06:48:48;;;;;;;3.13;1.60;;;14.40;71.50;;;;;;5033946;28;20070;-82
2022/06/01 06:51:15;;;;;;;4.83;1.70;;;14.50;71.60;;;;;;5016297;28;20087;-81
2022/06/01 06:53:41;;;;;;;2.75;1.67;;;14.60;71.60;;;;;;5023221;28;20369;-82
2022/06/01 06:56:07;;;;;;;3.20;1.55;;;14.60;71.70;;;;;;5042182;28;20212;-81
2022/06/01 06:58:35;;;;;;;3.63;1.55;;;14.70;71.50;;;;;;5020962;28;20589;-81
2022/06/01 07:01:01;;;;;;;2.60;1.60;;;14.80;71.60;;;;;;5033193;28;20112;-81
2022/06/01 07:03:27;;;;;;;2.38;1.40;;;14.80;71.70;;;;;;5041789;28;20707;-81
2022/06/01 07:08:40;;;;;;;3.17;1.60;;;15.00;71.80;;;;;;5017338;28;20549;-82
2022/06/01 07:11:06;;;;;;;3.85;1.52;;;15.10;71.90;;;;;;5022407;28;20025;-82
2022/06/01 07:13:32;;;;;;;3.13;1.50;;;15.30;72.00;;;;;;5038516;28;20189;-82
2022/06/01 07:16:10;;;;;;;2.90;1.77;;;15.40;72.10;;;;;;5032245;28;20108;-82
2022/06/01 07:18:38;;;;;;;3.28;1.60;;;15.50;72.30;;;;;;5035645;28;20142;-82
2022/06/01 07:21:04;;;;;;;2.90;1.57;;;15.70;72.10;;;;;;5019789;28;20033;-82
2022/06/01 07:23:30;;;;;;;2.85;1.40;;;15.90;72.10;;;;;;5004892;28;20032;-82
2022/06/01 07:25:56;;;;;;;2.20;1.55;;;16.00;72.00;;;;;;5035006;28;20032;-82
2022/06/01 07:28:22;;;;;;;4.20;1.93;;;16.10;71.80;;;;;;5032765;28;20051;-82
2022/06/01 07:30:50;;;;;;;4.05;1.67;;;16.30;71.80;;;;;;5025127;28;20113;-82
2022/06/01 07:33:19;;;;;;;3.95;1.50;;;16.40;71.80;;;;;;5035104;28;20521;-82
2022/06/01 07:35:44;;;;;;;4.18;1.77;;;16.60;72.30;;;;;;5044704;28;20223;-82
2022/06/01 07:43:40;;;;;;;3.17;1.73;;;17.20;72.00;;;;;;5028095;28;20123;-81
2022/06/01 07:46:06;;;;;;;3.83;1.90;;;17.30;71.20;;;;;;5025519;28;20029;-81
2022/06/01 07:48:33;;;;;;;3.10;1.90;;;17.40;70.90;;;;;;5023018;28;20119;-82
2022/06/01 07:50:59;;;;;;;3.10;1.80;;;17.50;70.80;;;;;;5037211;28;20138;-81
2022/06/01 07:53:25;;;;;;;2.75;1.95;;;17.60;71.00;;;;;;5010221;28;20032;-82
2022/06/01 07:55:50;;;;;;;3.00;1.77;;;17.70;71.00;;;;;;5004179;28;20489;-83
2022/06/01 07:58:16;;;;;;;3.07;1.90;;;18.00;71.70;;;;;;5030704;28;20478;-81
2022/06/01 08:00:43;;;;;;;3.77;2.10;;;18.30;72.40;;;;;;5020756;28;20914;-82
2022/06/01 08:03:17;;;;;;;3.97;2.03;;;18.60;72.30;;;;;;5021681;28;20056;-79
2022/06/01 08:05:43;;;;;;;2.63;1.83;;;18.90;70.10;;;;;;5043423;28;20037;-79
2022/06/01 08:08:08;;;;;;;2.60;1.73;;;19.10;70.20;;;;;;5020611;28;20040;-78
2022/06/01 08:10:36;;;;;;;3.50;1.47;;;19.30;69.10;;;;;;5018544;28;20379;-79
2022/06/01 08:13:09;;;;;;;2.78;1.70;;;19.40;68.10;;;;;;5015947;28;20043;-79
2022/06/01 08:15:44;;;;;;;3.08;1.50;;;19.50;67.70;;;;;;5033751;28;20318;-79
2022/06/01 08:18:12;;;;;;;3.38;1.60;;;19.60;66.80;;;;;;5022726;28;20044;-80
2022/06/01 08:20:38;;;;;;;3.42;1.80;;;19.60;67.80;;;;;;5033433;28;20443;-79
2022/06/01 08:23:05;;;;;;;2.10;1.70;;;19.80;68.50;;;;;;5006904;28;20029;-81
2022/06/01 08:25:31;;;;;;;2.45;1.63;;;19.90;68.60;;;;;;5035405;28;20080;-79
2022/06/01 08:27:57;;;;;;;2.35;1.70;;;20.20;69.00;;;;;;5016316;28;20394;-79
2022/06/01 08:30:25;;;;;;;2.00;1.47;;;20.30;67.50;;;;;;5032333;28;20021;-79
2022/06/01 08:32:52;;;;;;;2.40;1.50;;;20.50;66.60;;;;;;5018438;28;20037;-81
2022/06/01 08:35:19;;;;;;;3.28;1.30;;;20.50;65.60;;;;;;5027421;28;20104;-78
2022/06/01 08:37:46;;;;;;;1.52;1.20;;;20.50;65.50;;;;;;5029964;28;20132;-80
2022/06/01 08:40:13;;;;;;;1.85;1.27;;;20.50;64.20;;;;;;5007558;28;20416;-80
2022/06/01 08:42:48;;;;;;;1.50;1.20;;;20.50;64.60;;;;;;5021508;28;20795;-79
2022/06/01 08:45:14;;;;;;;5.30;1.58;;;20.50;64.80;;;;;;5027245;28;20038;-79
2022/06/01 08:47:41;;;;;;;2.03;1.20;;;20.70;65.40;;;;;;4999801;28;20738;-79
2022/06/01 08:50:29;;;;;;;2.17;1.50;;;20.80;65.30;;;;;;5040482;28;20021;-79
2022/06/01 08:53:00;;;;;;;2.50;1.48;;;21.00;63.10;;;;;;5032740;28;20041;-81
2022/06/01 08:55:35;;;;;;;2.33;1.20;;;21.30;65.40;;;;;;5024510;28;20616;-80
2022/06/01 08:58:19;;;;;;;1.75;1.25;;;21.50;65.70;;;;;;5016303;28;20123;-79
2022/06/01 09:01:01;;;;;;;2.15;1.40;;;21.80;62.80;;;;;;5038527;28;20041;-80
2022/06/01 09:04:03;;;;;;;2.38;1.40;;;21.90;62.20;;;;;;5004502;28;20231;-79
2022/06/01 09:06:46;;;;;;;4.78;3.00;;;21.90;60.40;;;;;;5031546;28;20671;-79
2022/06/01 09:09:57;;;;;;;5.70;3.07;;;21.90;60.90;;;;;;5037092;28;20037;-79
2022/06/01 09:12:24;;;;;;;3.83;1.88;;;21.80;59.60;;;;;;5027476;28;20134;-79
2022/06/01 09:14:55;;;;;;;2.50;1.80;;;21.70;60.20;;;;;;5012797;28;20441;-79
2022/06/01 09:17:21;;;;;;;1.70;1.30;;;21.60;59.90;;;;;;5034848;28;20055;-79
2022/06/01 09:22:45;;;;;;;1.67;1.23;;;21.40;59.70;;;;;;5033953;28;20177;-79
2022/06/01 09:25:32;;;;;;;3.15;1.50;;;21.30;59.40;;;;;;5028659;28;20044;-79
2022/06/01 09:28:01;;;;;;;2.70;1.55;;;21.10;58.50;;;;;;5025743;28;20094;-78
2022/06/01 09:30:34;;;;;;;2.55;1.55;;;21.00;59.60;;;;;;5015021;28;20119;-79
2022/06/01 09:33:20;;;;;;;1.95;1.40;;;21.00;59.10;;;;;;5046390;28;20085;-79
2022/06/01 09:36:06;;;;;;;1.77;1.00;;;20.90;59.30;;;;;;5017269;28;20025;-79
2022/06/01 09:38:34;;;;;;;2.45;1.10;;;20.80;59.40;;;;;;5031016;28;20033;-79
2022/06/01 09:41:36;;;;;;;2.22;1.13;;;20.90;60.90;;;;;;5009618;28;20132;-80
2022/06/01 09:44:10;;;;;;;1.48;1.17;;;21.00;59.50;;;;;;5032215;28;20028;-79
2022/06/01 09:46:58;;;;;;;2.38;1.20;;;21.10;60.40;;;;;;5033669;28;20029;-79
2022/06/01 09:49:30;;;;;;;1.33;1.20;;;21.30;61.40;;;;;;5006656;28;20069;-79
2022/06/01 09:52:23;;;;;;;1.35;1.23;;;21.70;63.00;;;;;;5028349;28;20075;-79
2022/06/01 09:54:53;;;;;;;2.92;1.50;;;22.20;61.40;;;;;;5032053;28;20025;-78
2022/06/01 09:57:28;;;;;;;1.55;1.10;;;22.80;64.70;;;;;;5015808;28;20448;-78
2022/06/01 10:08:29;;;;;;;2.10;1.13;;;25.00;60.80;;;;;;5031771;28;20575;-79
2022/06/01 10:11:34;;;;;;;2.00;1.30;;;25.40;58.60;;;;;;5032118;28;20095;-79
2022/06/01 10:14:12;;;;;;;1.40;1.15;;;25.60;53.90;;;;;;5041030;28;20037;-80
2022/06/01 10:17:01;;;;;;;1.60;0.90;;;25.50;54.50;;;;;;5020898;28;20041;-78
2022/06/01 10:19:36;;;;;;;1.83;1.10;;;25.40;52.20;;;;;;5022653;28;20789;-79
2022/06/01 10:22:17;;;;;;;2.88;1.35;;;25.10;52.10;;;;;;5034837;28;20036;-80
2022/06/01 10:25:18;;;;;;;1.63;1.20;;;24.70;51.60;;;;;;5036098;28;20036;-80
2022/06/01 10:27:55;;;;;;;1.65;1.05;;;24.40;51.30;;;;;;5018367;28;20041;-80
2022/06/01 10:30:32;;;;;;;1.87;1.17;;;24.00;51.70;;;;;;5013985;28;20043;-79
2022/06/01 10:33:08;;;;;;;1.63;1.00;;;23.60;51.90;;;;;;5044707;28;20112;-80
2022/06/01 10:35:45;;;;;;;1.85;1.08;;;23.40;52.20;;;;;;5027739;28;21109;-80
2022/06/01 10:38:20;;;;;;;2.13;1.17;;;23.10;52.70;;;;;;5039999;28;20140;-79
2022/06/01 10:41:09;;;;;;;1.23;1.05;;;22.90;53.30;;;;;;5031976;28;20036;-80
2022/06/01 10:44:16;;;;;;;2.90;1.20;;;22.70;53.10;;;;;;5025971;28;20834;-79
2022/06/01 10:46:50;;;;;;;2.55;1.20;;;22.50;53.60;;;;;;5021393;28;20559;-79
2022/06/01 10:49:21;;;;;;;1.60;1.10;;;22.30;53.90;;;;;;5021766;28;20561;-80
2022/06/01 10:52:11;;;;;;;1.45;1.20;;;22.30;54.80;;;;;;5020463;28;20409;-82
2022/06/01 10:54:58;;;;;;;2.20;1.20;;;22.30;56.10;;;;;;5040763;28;20471;-78
2022/06/01 10:57:23;;;;;;;2.23;1.50;;;22.60;56.90;;;;;;5014906;28;20260;-79
2022/06/01 10:59:50;;;;;;;2.20;1.52;;;23.10;59.70;;;;;;5030024;28;20060;-78
2022/06/01 11:02:36;;;;;;;3.08;1.38;;;23.60;60.20;;;;;;5020161;28;20900;-79
2022/06/01 11:05:18;;;;;;;2.72;1.77;;;24.30;58.50;;;;;;5019041;28;20060;-79
2022/06/01 11:07:50;;;;;;;2.67;1.80;;;25.00;57.50;;;;;;5020660;28;20772;-78
2022/06/01 11:10:45;;;;;;;2.78;1.77;;;25.60;58.60;;;;;;5025779;28;20350;-80
2022/06/01 11:13:40;;;;;;;2.58;1.40;;;26.00;53.80;;;;;;5012417;28;20743;-80
2022/06/01 11:16:24;;;;;;;1.52;1.30;;;26.30;51.80;;;;;;5028127;28;20413;-80
2022/06/01 11:18:49;;;;;;;1.55;1.40;;;26.20;50.80;;;;;;5015039;28;20126;-80
2022/06/01 11:21:31;;;;;;;1.23;1.13;;;26.20;52.40;;;;;;5011182;28;20489;-79
2022/06/01 11:24:23;;;;;;;1.75;1.10;;;26.30;50.70;;;;;;5016198;28;20026;-78
2022/06/01 11:27:23;;;;;;;2.15;1.33;;;26.30;50.10;;;;;;5023594;28;20036;-78
2022/06/01 11:29:56;;;;;;;2.33;1.17;;;26.30;49.20;;;;;;5013780;28;20026;-79
2022/06/01 11:32:34;;;;;;;1.52;1.10;;;26.10;49.70;;;;;;5024092;28;20081;-79
2022/06/01 11:35:12;;;;;;;1.20;1.10;;;25.90;48.40;;;;;;5014864;28;20041;-80
2022/06/01 11:37:59;;;;;;;1.25;1.02;;;25.70;48.40;;;;;;5015557;28;20052;-80
2022/06/01 11:40:49;;;;;;;1.00;0.90;;;25.50;47.50;;;;;;5025355;28;20589;-79
2022/06/01 11:43:45;;;;;;;0.83;0.83;;;25.30;47.30;;;;;;5023485;28;20040;-79
2022/06/01 11:46:15;;;;;;;0.70;0.65;;;25.20;48.10;;;;;;5004319;28;20227;-79
2022/06/01 11:48:53;;;;;;;0.77;0.70;;;25.00;47.80;;;;;;5029908;28;20465;-79
2022/06/01 11:51:42;;;;;;;0.70;0.70;;;24.90;47.70;;;;;;5012513;28;20069;-78
2022/06/01 11:54:15;;;;;;;0.70;0.70;;;24.90;49.10;;;;;;5028353;28;20155;-79
2022/06/01 11:57:01;;;;;;;0.80;0.80;;;25.00;48.70;;;;;;5035883;28;20033;-79
2022/06/01 11:59:34;;;;;;;1.23;0.80;;;25.20;47.40;;;;;;5020552;28;20498;-79
2022/06/01 12:02:19;;;;;;;0.70;0.70;;;25.30;48.10;;;;;;5007069;28;20408;-79
2022/06/01 12:05:01;;;;;;;1.02;0.80;;;25.40;46.20;;;;;;5027322;28;20143;-79
2022/06/01 12:07:36;;;;;;;0.93;0.70;;;25.40;46.00;;;;;;5009904;28;20171;-81
2022/06/01 12:10:28;;;;;;;1.13;0.97;;;25.20;45.50;;;;;;5009487;28;20066;-79
2022/06/01 12:13:16;;;;;;;1.27;0.80;;;25.00;44.60;;;;;;5033891;28;20040;-79
2022/06/01 12:16:03;;;;;;;1.63;0.98;;;24.80;44.70;;;;;;5033839;28;20462;-79
2022/06/01 12:18:29;;;;;;;1.45;0.80;;;24.50;45.40;;;;;;5031474;28;20456;-79
2022/06/01 12:21:38;;;;;;;1.10;1.00;;;24.30;45.80;;;;;;5012446;28;20151;-80
2022/06/01 12:30:17;;;;;;;1.25;1.15;;;23.80;46.20;;;;;;5026488;28;20029;-79
2022/06/01 12:33:12;;;;;;;1.40;1.30;;;23.60;45.70;;;;;;5017081;28;20366;-80
2022/06/01 12:35:42;;;;;;;2.35;1.23;;;23.50;46.20;;;;;;5033472;28;20029;-80
2022/06/01 12:38:15;;;;;;;2.67;1.30;;;23.30;46.50;;;;;;5008461;28;20903;-78
2022/06/01 12:40:52;;;;;;;1.55;1.00;;;23.10;46.50;;;;;;5027433;28;20047;-79
2022/06/01 12:43:18;;;;;;;1.65;1.00;;;23.00;46.90;;;;;;5026166;28;20025;-80
2022/06/01 12:45:44;;;;;;;1.92;1.10;;;22.90;47.20;;;;;;5020854;28;20048;-78
2022/06/01 12:48:14;;;;;;;1.47;1.00;;;22.80;47.40;;;;;;5024405;28;20583;-79
2022/06/01 12:50:57;;;;;;;1.30;1.20;;;22.70;47.80;;;;;;5029142;28;20474;-78
2022/06/01 12:53:26;;;;;;;1.63;1.20;;;22.70;48.30;;;;;;5014797;28;20040;-78
2022/06/01 12:56:14;;;;;;;1.55;1.40;;;22.80;49.20;;;;;;5011669;28;20639;-78
2022/06/01 12:58:40;;;;;;;1.48;1.33;;;23.00;49.00;;;;;;5025407;28;20025;-78
2022/06/01 13:01:06;;;;;;;1.50;1.27;;;23.10;49.20;;;;;;5023485;28;20137;-78
2022/06/01 13:03:33;;;;;;;1.50;1.40;;;23.30;48.90;;;;;;5010653;28;20041;-80
2022/06/01 13:06:08;;;;;;;1.38;1.10;;;23.40;48.50;;;;;;5009089;28;20099;-79
2022/06/01 13:08:37;;;;;;;1.77;1.30;;;23.40;48.80;;;;;;5014525;28;20132;-79
2022/06/01 13:11:13;;;;;;;1.33;1.10;;;23.50;48.10;;;;;;5025579;28;20044;-78
2022/06/01 13:13:42;;;;;;;1.80;1.10;;;23.60;48.00;;;;;;5021180;28;20032;-79
2022/06/01 13:16:08;;;;;;;1.52;1.40;;;23.60;47.90;;;;;;5037115;28;20164;-79
2022/06/01 13:18:41;;;;;;;1.45;1.20;;;23.70;48.20;;;;;;4997525;28;20160;-78
2022/06/01 13:21:21;;;;;;;2.00;1.20;;;23.80;48.10;;;;;;5035118;28;20120;-79
2022/06/01 13:24:07;;;;;;;1.25;1.10;;;23.80;48.00;;;;;;5016617;28;20360;-79
2022/06/01 13:26:45;;;;;;;1.27;1.10;;;23.90;46.90;;;;;;5023404;28;20090;-79
2022/06/01 13:29:19;;;;;;;3.47;1.30;;;24.00;47.50;;;;;;5013432;28;20069;-79
2022/06/01 13:31:49;;;;;;;1.77;1.40;;;24.00;47.90;;;;;;5031868;28;20469;-79
2022/06/01 13:34:28;;;;;;;1.40;1.10;;;24.20;48.30;;;;;;5008074;28;20095;-79
2022/06/01 13:36:53;;;;;;;2.20;1.20;;;24.40;48.00;;;;;;5019798;28;20210;-79
2022/06/01 13:39:29;;;;;;;2.13;1.35;;;24.60;48.80;;;;;;5015042;28;20678;-79
2022/06/01 13:42:00;;;;;;;2.53;1.10;;;24.70;47.40;;;;;;5015431;28;20592;-79
2022/06/01 13:44:48;;;;;;;1.40;1.30;;;24.80;47.60;;;;;;5032023;28;20013;-78